Have a Safe July 4th! 

Flight Track Log - Related Links

Times and Time Zones

All times are in EDT time to prevent confusion due to time zone crossing. See the SWA268 flight status page for this flight to view local times or setup timezone preferences in your user account.

Time Position Orientation Groundspeed Altitude Reporting Facility
EDT Latitude Longitude Course Direction KTS MPH feet Rate Location/Type
Fri 12:06:17 PM 33.6500 -117.8833 194° South 134 154 1,400  Level Southern California TRACON
Fri 12:07:25 PM 33.6114 -117.8953 194° South 154 177 2,800 1,302 Climbing Los Angeles Center
Fri 12:08:26 PM 33.5583 -117.9019 186° South 185 213 4,200 2,439 Climbing Los Angeles Center
Fri 12:09:28 PM 33.5317 -117.9678 244° Southwest 230 265 7,800 3,484 Climbing Los Angeles Center
Fri 12:10:30 PM 33.5742 -118.0250 312° West 249 287 11,400 3,000 Climbing Los Angeles Center
Fri 12:11:32 PM 33.6528 -118.0450 348° North 293 337 14,000 2,806 Climbing Los Angeles Center
Fri 12:12:34 PM 33.7642 -118.0508 358° North 336 387 17,200 2,952 Climbing Los Angeles Center
Fri 12:13:36 PM 33.8558 -117.9881 30° Northeast 387 445 20,100 2,710 Climbing Los Angeles Center
Fri 12:14:38 PM 33.9450 -117.9064 37° Northeast 403 464 22,800 2,565 Climbing Los Angeles Center
Fri 12:15:40 PM 34.0267 -117.8014 47° Northeast 427 491 25,400 2,855 Climbing Los Angeles Center
Fri 12:16:42 PM 34.1072 -117.6986 47° Northeast 425 489 28,700 1,742 Climbing Los Angeles Center
Fri 12:17:44 PM 34.2031 -117.5769 46° Northeast 419 482 29,000 145 Climbing Los Angeles Center
Fri 12:18:46 PM 34.2819 -117.4744 47° Northeast 417 480 29,000  Level Los Angeles Center
Fri 12:19:48 PM 34.3628 -117.3706 47° Northeast 423 487 29,000  Level Los Angeles Center
Fri 12:20:50 PM 34.4436 -117.2639 47° Northeast 417 480 29,000  Level Los Angeles Center
Fri 12:21:52 PM 34.5228 -117.1628 46° Northeast 415 478 29,000  Level Los Angeles Center
Fri 12:22:54 PM 34.6017 -117.0586 47° Northeast 420 483 29,000  Level Los Angeles Center
Fri 12:23:56 PM 34.6797 -116.9581 47° Northeast 414 476 29,000  Level Los Angeles Center
Fri 12:24:59 PM 34.7717 -116.8372 47° Northeast 408 470 29,000  Level Los Angeles Center
Fri 12:26:01 PM 34.8489 -116.7347 47° Northeast 412 474 29,000 -242 Level Los Angeles Center
Fri 12:27:03 PM 34.9269 -116.6353 46° Northeast 410 472 28,500 -1,210 Descending Los Angeles Center
Fri 12:28:05 PM 35.0028 -116.5319 48° Northeast 410 472 26,500 -1,935 Descending Los Angeles Center
Fri 12:29:07 PM 35.0781 -116.4331 47° Northeast 403 464 24,500 -1,210 Descending Los Angeles Center
Fri 12:30:09 PM 35.1675 -116.3167 47° Northeast 396 456 24,000 -532 Descending Los Angeles Center
Fri 12:31:11 PM 35.2486 -116.2200 44° Northeast 396 456 23,400 -1,161 Descending Los Angeles Center
Fri 12:32:13 PM 35.3192 -116.1281 47° Northeast 386 444 21,600 -1,728 Descending Los Angeles Center
Fri 12:33:16 PM 35.3906 -116.0369 46° Northeast 372 428 19,800 -1,680 Descending Los Angeles Center
Fri 12:34:18 PM 35.4606 -115.9486 46° Northeast 364 419 18,100 -1,788 Descending Los Angeles Center
Fri 12:35:00 PM 35.5183 -115.8758 46° Northeast 358 412 16,700 -1,839 Descending Los Angeles Center
Fri 12:35:20 PM 35.5364 -115.8517 47° Northeast 354 407 16,200 -1,610 Descending Los Angeles Center
Fri 12:36:22 PM 35.6017 -115.7714 45° Northeast 340 391 14,500 -1,794 Descending Los Angeles Center
Fri 12:37:07 PM 35.6614 -115.6981 45° Northeast 341 392 13,000 -1,452 Descending Los Angeles Center
Fri 12:37:24 PM 35.6689 -115.6872 50° Northeast 342 394 13,000 -197 Level Los Angeles Center
Fri 12:38:08 PM 35.7281 -115.6158 44° Northeast 341 392 12,800 -484 Descending Los Angeles Center
Fri 12:38:26 PM 35.7522 -115.5931 37° Northeast 337 388 12,500 -787 Descending Los Angeles Center
Fri 12:39:09 PM 35.8053 -115.5539 31° Northeast 331 381 12,000 -484 Descending Los Angeles Center
Fri 12:39:28 PM 35.8303 -115.5339 33° Northeast 332 382 12,000  Level Los Angeles Center
Fri 12:40:10 PM 35.8825 -115.4917 33° Northeast 330 380 12,000  Level Los Angeles Center
Fri 12:40:30 PM 35.9067 -115.4722 33° Northeast 330 380 12,000  Level Los Angeles Center
Fri 12:41:11 PM 35.9625 -115.4314 31° Northeast 334 384 12,000  Level Los Angeles Center
Fri 12:41:32 PM 35.9839 -115.4122 36° Northeast 330 380 12,000 -700 Level Los Angeles Center
Fri 12:42:11 PM 36.0253 -115.3631 44° Northeast 310 357 11,300 -1,048 Descending Los Angeles Center
Fri 12:42:35 PM 36.0283 -115.3333 83° East 314 361 10,900 -1,475 Descending Los Angeles Center
Fri 12:43:12 PM 36.0217 -115.2553 96° East 293 337 9,800 -1,645 Descending Los Angeles Center
Fri 12:43:37 PM 36.0183 -115.2147 96° East 294 338 9,200 -1,279 Descending Los Angeles Center
Fri 12:44:13 PM 36.0158 -115.1589 93° East 278 320 8,500 -1,161 Descending Los Angeles Center
Fri 12:44:39 PM 36.0133 -115.1214 95° East 281 323 8,000 -492 Descending Los Angeles Center
Fri 12:45:14 PM 36.0100 -115.0731 95° East 238 274 8,000 -194 Level Los Angeles Center
Fri 12:45:41 PM 36.0089 -115.0403 92° East 252 290 7,800 -984 Descending Los Angeles Center
Fri 12:46:15 PM 36.0089 -114.9989 90° East 208 239 7,000 -1,258 Descending Los Angeles Center
Fri 12:46:43 PM 36.0114 -114.9725 83° East 217 250 6,500 -1,279 Descending Los Angeles Center
Fri 12:47:16 PM 36.0439 -114.9608 16° North 189 217 5,700 -1,258 Descending Los Angeles Center
Fri 12:47:45 PM 36.0575 -114.9683 336° Northwest 192 221 5,200 -1,574 Descending Los Angeles Center
Fri 12:48:17 PM 36.0703 -115.0025 295° West 167 192 4,100 -1,452 Descending Los Angeles Center
Fri 12:48:47 PM 36.0764 -115.0178 296° West 170 196 3,700 -885 Descending Los Angeles Center
Fri 12:49:18 PM 36.0744 -115.0517 266° West 153 176 3,200 -871 Descending Los Angeles Center
Fri 12:49:49 PM 36.0744 -115.0761 270° West 151 174 2,800 -716 Descending Los Angeles Center
Fri 12:50:25 PM 36.0739 -115.1078 269° West 141 162 2,400 -667 Descending Los Angeles Center
Fri 12:50:52 PM 36.0742 -115.1244 271° West 144 166 2,100 -667 Descending Los Angeles Center
Fri 12:52:00 PM 36.0667 -115.1500 270° West  Level FlightAware Approximate
Fri 12:59:00 PM 36.0801 -115.1523 270° West  Level Estimated

Login

Don't have an account? Register now (free) for customized features, flight alerts, and more!